sensor_id;sensor_type;location;lat;lon;timestamp;P1;durP1;ratioP1;P2;durP2;ratioP2
25810;SDS011;13645;52.460;13.910;2022-12-29T00:01:41;5.10;;;1.80;;
25810;SDS011;13645;52.460;13.910;2022-12-29T00:04:09;2.88;;;1.95;;
25810;SDS011;13645;52.460;13.910;2022-12-29T00:06:41;2.03;;;1.60;;
25810;SDS011;13645;52.460;13.910;2022-12-29T00:09:10;3.88;;;1.73;;
25810;SDS011;13645;52.460;13.910;2022-12-29T00:11:38;3.55;;;1.50;;
25810;SDS011;13645;52.460;13.910;2022-12-29T00:14:05;3.47;;;1.40;;
25810;SDS011;13645;52.460;13.910;2022-12-29T00:16:53;3.05;;;1.52;;
25810;SDS011;13645;52.460;13.910;2022-12-29T00:19:20;2.58;;;1.80;;
25810;SDS011;13645;52.460;13.910;2022-12-29T00:22:08;4.30;;;1.67;;
25810;SDS011;13645;52.460;13.910;2022-12-29T00:24:59;2.22;;;1.60;;
25810;SDS011;13645;52.460;13.910;2022-12-29T00:27:44;2.97;;;1.73;;
25810;SDS011;13645;52.460;13.910;2022-12-29T00:30:33;2.97;;;1.58;;
25810;SDS011;13645;52.460;13.910;2022-12-29T00:33:20;4.55;;;1.67;;
25810;SDS011;13645;52.460;13.910;2022-12-29T00:36:08;5.85;;;1.80;;
25810;SDS011;13645;52.460;13.910;2022-12-29T00:38:46;3.42;;;1.75;;
25810;SDS011;13645;52.460;13.910;2022-12-29T00:41:46;4.95;;;1.63;;
25810;SDS011;13645;52.460;13.910;2022-12-29T00:44:32;4.15;;;1.70;;
25810;SDS011;13645;52.460;13.910;2022-12-29T00:46:59;3.63;;;1.70;;
25810;SDS011;13645;52.460;13.910;2022-12-29T00:49:30;3.97;;;1.42;;
25810;SDS011;13645;52.460;13.910;2022-12-29T00:51:59;6.05;;;1.92;;
25810;SDS011;13645;52.460;13.910;2022-12-29T00:54:27;3.65;;;1.60;;
25810;SDS011;13645;52.460;13.910;2022-12-29T00:56:55;3.35;;;1.70;;
25810;SDS011;13645;52.460;13.910;2022-12-29T00:59:22;6.25;;;1.77;;
25810;SDS011;13645;52.460;13.910;2022-12-29T01:01:50;4.13;;;1.50;;
25810;SDS011;13645;52.460;13.910;2022-12-29T01:04:19;3.00;;;1.50;;
25810;SDS011;13645;52.460;13.910;2022-12-29T01:06:49;2.30;;;1.50;;
25810;SDS011;13645;52.460;13.910;2022-12-29T01:09:17;1.88;;;1.40;;
25810;SDS011;13645;52.460;13.910;2022-12-29T01:12:03;3.63;;;1.40;;
25810;SDS011;13645;52.460;13.910;2022-12-29T01:14:31;4.63;;;1.38;;
25810;SDS011;13645;52.460;13.910;2022-12-29T01:16:58;2.20;;;1.60;;
25810;SDS011;13645;52.460;13.910;2022-12-29T01:19:25;4.80;;;1.80;;
25810;SDS011;13645;52.460;13.910;2022-12-29T01:21:52;3.45;;;1.75;;
25810;SDS011;13645;52.460;13.910;2022-12-29T01:24:19;3.80;;;1.70;;
25810;SDS011;13645;52.460;13.910;2022-12-29T01:26:47;3.33;;;1.80;;
25810;SDS011;13645;52.460;13.910;2022-12-29T01:29:14;2.47;;;1.42;;
25810;SDS011;13645;52.460;13.910;2022-12-29T01:31:42;2.25;;;1.60;;
25810;SDS011;13645;52.460;13.910;2022-12-29T01:34:09;2.55;;;1.70;;
25810;SDS011;13645;52.460;13.910;2022-12-29T01:36:35;1.52;;;1.33;;
25810;SDS011;13645;52.460;13.910;2022-12-29T01:39:02;2.78;;;1.60;;
25810;SDS011;13645;52.460;13.910;2022-12-29T01:41:29;3.70;;;1.42;;
25810;SDS011;13645;52.460;13.910;2022-12-29T01:43:58;3.38;;;1.60;;
25810;SDS011;13645;52.460;13.910;2022-12-29T01:46:36;3.80;;;1.48;;
25810;SDS011;13645;52.460;13.910;2022-12-29T01:49:17;5.10;;;1.95;;
25810;SDS011;13645;52.460;13.910;2022-12-29T01:51:54;2.50;;;1.55;;
25810;SDS011;13645;52.460;13.910;2022-12-29T01:54:32;2.88;;;1.58;;
25810;SDS011;13645;52.460;13.910;2022-12-29T01:57:03;2.55;;;1.20;;
25810;SDS011;13645;52.460;13.910;2022-12-29T01:59:35;1.60;;;1.20;;
25810;SDS011;13645;52.460;13.910;2022-12-29T02:02:05;2.90;;;1.52;;
25810;SDS011;13645;52.460;13.910;2022-12-29T02:04:32;1.42;;;1.23;;
25810;SDS011;13645;52.460;13.910;2022-12-29T02:07:02;2.45;;;1.35;;
25810;SDS011;13645;52.460;13.910;2022-12-29T02:09:33;2.45;;;1.17;;
25810;SDS011;13645;52.460;13.910;2022-12-29T02:11:59;3.53;;;1.70;;
25810;SDS011;13645;52.460;13.910;2022-12-29T02:14:27;1.50;;;1.40;;
25810;SDS011;13645;52.460;13.910;2022-12-29T02:17:01;3.88;;;1.50;;
25810;SDS011;13645;52.460;13.910;2022-12-29T02:33:44;2.80;;;1.55;;
25810;SDS011;13645;52.460;13.910;2022-12-29T02:42:03;2.80;;;1.25;;
25810;SDS011;13645;52.460;13.910;2022-12-29T02:47:03;4.95;;;1.30;;
25810;SDS011;13645;52.460;13.910;2022-12-29T02:52:15;6.25;;;1.35;;
25810;SDS011;13645;52.460;13.910;2022-12-29T02:54:47;2.53;;;1.58;;
25810;SDS011;13645;52.460;13.910;2022-12-29T02:57:36;4.03;;;1.75;;
25810;SDS011;13645;52.460;13.910;2022-12-29T03:21:22;2.45;;;1.27;;
25810;SDS011;13645;52.460;13.910;2022-12-29T03:24:28;2.13;;;1.48;;
25810;SDS011;13645;52.460;13.910;2022-12-29T03:29:27;3.03;;;1.30;;
25810;SDS011;13645;52.460;13.910;2022-12-29T03:31:59;4.15;;;1.13;;
25810;SDS011;13645;52.460;13.910;2022-12-29T03:34:29;3.83;;;1.50;;
25810;SDS011;13645;52.460;13.910;2022-12-29T03:36:59;2.92;;;1.40;;
25810;SDS011;13645;52.460;13.910;2022-12-29T03:39:31;3.45;;;1.30;;
25810;SDS011;13645;52.460;13.910;2022-12-29T03:41:59;2.53;;;1.40;;
25810;SDS011;13645;52.460;13.910;2022-12-29T03:44:36;4.55;;;1.42;;
25810;SDS011;13645;52.460;13.910;2022-12-29T03:47:06;1.90;;;1.25;;
25810;SDS011;13645;52.460;13.910;2022-12-29T03:49:33;2.47;;;1.38;;
25810;SDS011;13645;52.460;13.910;2022-12-29T03:52:00;1.50;;;1.20;;
25810;SDS011;13645;52.460;13.910;2022-12-29T03:54:27;3.15;;;1.50;;
25810;SDS011;13645;52.460;13.910;2022-12-29T03:56:54;6.07;;;1.50;;
25810;SDS011;13645;52.460;13.910;2022-12-29T03:59:20;3.25;;;1.38;;
25810;SDS011;13645;52.460;13.910;2022-12-29T04:01:47;2.45;;;1.13;;
25810;SDS011;13645;52.460;13.910;2022-12-29T04:04:14;4.75;;;1.40;;
25810;SDS011;13645;52.460;13.910;2022-12-29T04:06:42;4.03;;;1.45;;
25810;SDS011;13645;52.460;13.910;2022-12-29T04:09:09;1.38;;;1.10;;
25810;SDS011;13645;52.460;13.910;2022-12-29T04:11:36;3.10;;;1.40;;
25810;SDS011;13645;52.460;13.910;2022-12-29T04:14:03;1.83;;;1.20;;
25810;SDS011;13645;52.460;13.910;2022-12-29T04:16:30;2.30;;;1.42;;
25810;SDS011;13645;52.460;13.910;2022-12-29T04:18:57;2.70;;;1.40;;
25810;SDS011;13645;52.460;13.910;2022-12-29T04:21:23;2.53;;;1.33;;
25810;SDS011;13645;52.460;13.910;2022-12-29T04:23:50;2.85;;;1.30;;
25810;SDS011;13645;52.460;13.910;2022-12-29T04:26:17;5.15;;;1.40;;
25810;SDS011;13645;52.460;13.910;2022-12-29T04:28:44;2.22;;;1.13;;
25810;SDS011;13645;52.460;13.910;2022-12-29T04:31:10;2.08;;;1.40;;
25810;SDS011;13645;52.460;13.910;2022-12-29T04:33:37;1.67;;;1.20;;
25810;SDS011;13645;52.460;13.910;2022-12-29T04:36:04;3.55;;;1.10;;
25810;SDS011;13645;52.460;13.910;2022-12-29T04:38:31;2.83;;;1.17;;
25810;SDS011;13645;52.460;13.910;2022-12-29T04:41:01;3.50;;;1.45;;
25810;SDS011;13645;52.460;13.910;2022-12-29T04:43:28;1.98;;;1.38;;
25810;SDS011;13645;52.460;13.910;2022-12-29T04:45:55;3.75;;;1.50;;
25810;SDS011;13645;52.460;13.910;2022-12-29T04:48:22;2.75;;;1.20;;
25810;SDS011;13645;52.460;13.910;2022-12-29T04:50:49;3.65;;;1.40;;
25810;SDS011;13645;52.460;13.910;2022-12-29T04:53:16;4.47;;;1.50;;
25810;SDS011;13645;52.460;13.910;2022-12-29T04:55:43;4.53;;;1.30;;
25810;SDS011;13645;52.460;13.910;2022-12-29T04:58:10;2.38;;;1.23;;
25810;SDS011;13645;52.460;13.910;2022-12-29T05:00:42;1.58;;;1.20;;
25810;SDS011;13645;52.460;13.910;2022-12-29T05:03:09;4.10;;;1.40;;
25810;SDS011;13645;52.460;13.910;2022-12-29T05:05:36;2.97;;;1.48;;
25810;SDS011;13645;52.460;13.910;2022-12-29T05:08:03;2.45;;;1.40;;
25810;SDS011;13645;52.460;13.910;2022-12-29T05:10:30;1.58;;;1.13;;
25810;SDS011;13645;52.460;13.910;2022-12-29T05:12:57;1.98;;;1.40;;
25810;SDS011;13645;52.460;13.910;2022-12-29T05:15:24;1.58;;;1.15;;
25810;SDS011;13645;52.460;13.910;2022-12-29T05:17:51;2.33;;;1.30;;
25810;SDS011;13645;52.460;13.910;2022-12-29T05:20:18;3.42;;;1.15;;
25810;SDS011;13645;52.460;13.910;2022-12-29T05:22:45;2.53;;;1.45;;
25810;SDS011;13645;52.460;13.910;2022-12-29T05:25:11;3.00;;;1.30;;
25810;SDS011;13645;52.460;13.910;2022-12-29T05:27:39;2.03;;;1.23;;
25810;SDS011;13645;52.460;13.910;2022-12-29T05:30:06;2.92;;;1.23;;
25810;SDS011;13645;52.460;13.910;2022-12-29T05:32:33;3.80;;;1.40;;
25810;SDS011;13645;52.460;13.910;2022-12-29T05:35:00;3.53;;;1.48;;
25810;SDS011;13645;52.460;13.910;2022-12-29T05:37:26;3.67;;;1.70;;
25810;SDS011;13645;52.460;13.910;2022-12-29T05:39:53;1.55;;;1.30;;
25810;SDS011;13645;52.460;13.910;2022-12-29T05:42:20;2.15;;;1.30;;
25810;SDS011;13645;52.460;13.910;2022-12-29T05:44:47;2.22;;;0.98;;
25810;SDS011;13645;52.460;13.910;2022-12-29T05:47:16;4.35;;;1.35;;
25810;SDS011;13645;52.460;13.910;2022-12-29T05:49:42;2.05;;;1.45;;
25810;SDS011;13645;52.460;13.910;2022-12-29T05:52:09;2.20;;;1.40;;
25810;SDS011;13645;52.460;13.910;2022-12-29T05:54:36;2.53;;;1.50;;
25810;SDS011;13645;52.460;13.910;2022-12-29T05:57:03;2.50;;;1.20;;
25810;SDS011;13645;52.460;13.910;2022-12-29T05:59:29;2.50;;;1.30;;
25810;SDS011;13645;52.460;13.910;2022-12-29T06:01:56;2.60;;;1.40;;
25810;SDS011;13645;52.460;13.910;2022-12-29T06:04:23;1.88;;;1.48;;
25810;SDS011;13645;52.460;13.910;2022-12-29T06:06:50;1.98;;;1.40;;
25810;SDS011;13645;52.460;13.910;2022-12-29T06:09:16;4.70;;;1.90;;
25810;SDS011;13645;52.460;13.910;2022-12-29T06:11:43;1.50;;;1.10;;
25810;SDS011;13645;52.460;13.910;2022-12-29T06:14:10;2.60;;;1.65;;
25810;SDS011;13645;52.460;13.910;2022-12-29T06:16:36;1.70;;;1.45;;
25810;SDS011;13645;52.460;13.910;2022-12-29T06:19:03;4.32;;;1.65;;
25810;SDS011;13645;52.460;13.910;2022-12-29T06:21:30;3.88;;;1.30;;
25810;SDS011;13645;52.460;13.910;2022-12-29T06:23:57;2.53;;;1.60;;
25810;SDS011;13645;52.460;13.910;2022-12-29T06:26:24;3.72;;;1.88;;
25810;SDS011;13645;52.460;13.910;2022-12-29T06:28:50;3.17;;;2.00;;
25810;SDS011;13645;52.460;13.910;2022-12-29T06:31:17;3.38;;;1.60;;
25810;SDS011;13645;52.460;13.910;2022-12-29T06:33:44;4.10;;;1.85;;
25810;SDS011;13645;52.460;13.910;2022-12-29T06:36:15;2.95;;;1.60;;
25810;SDS011;13645;52.460;13.910;2022-12-29T06:38:42;2.45;;;1.50;;
25810;SDS011;13645;52.460;13.910;2022-12-29T06:41:09;2.40;;;1.58;;
25810;SDS011;13645;52.460;13.910;2022-12-29T06:43:36;1.88;;;1.15;;
25810;SDS011;13645;52.460;13.910;2022-12-29T06:46:04;3.90;;;1.70;;
25810;SDS011;13645;52.460;13.910;2022-12-29T06:48:31;5.50;;;1.20;;
25810;SDS011;13645;52.460;13.910;2022-12-29T06:50:58;3.03;;;1.50;;
25810;SDS011;13645;52.460;13.910;2022-12-29T06:53:25;1.92;;;1.30;;
25810;SDS011;13645;52.460;13.910;2022-12-29T06:55:52;2.28;;;1.13;;
25810;SDS011;13645;52.460;13.910;2022-12-29T06:58:19;3.47;;;1.65;;
25810;SDS011;13645;52.460;13.910;2022-12-29T07:00:46;1.92;;;1.45;;
25810;SDS011;13645;52.460;13.910;2022-12-29T07:03:13;4.60;;;1.30;;
25810;SDS011;13645;52.460;13.910;2022-12-29T07:05:40;3.38;;;1.63;;
25810;SDS011;13645;52.460;13.910;2022-12-29T07:08:06;5.18;;;1.40;;
25810;SDS011;13645;52.460;13.910;2022-12-29T07:10:33;2.42;;;1.75;;
25810;SDS011;13645;52.460;13.910;2022-12-29T07:13:00;3.75;;;1.40;;
25810;SDS011;13645;52.460;13.910;2022-12-29T07:15:27;2.83;;;1.58;;
25810;SDS011;13645;52.460;13.910;2022-12-29T07:17:54;2.63;;;1.20;;
25810;SDS011;13645;52.460;13.910;2022-12-29T07:20:21;2.28;;;1.30;;
25810;SDS011;13645;52.460;13.910;2022-12-29T07:22:52;4.43;;;1.35;;
25810;SDS011;13645;52.460;13.910;2022-12-29T07:25:19;2.53;;;1.52;;
25810;SDS011;13645;52.460;13.910;2022-12-29T07:27:46;5.57;;;3.15;;
25810;SDS011;13645;52.460;13.910;2022-12-29T07:30:12;2.83;;;1.90;;
25810;SDS011;13645;52.460;13.910;2022-12-29T07:32:39;3.50;;;1.40;;
25810;SDS011;13645;52.460;13.910;2022-12-29T07:35:06;2.53;;;1.40;;
25810;SDS011;13645;52.460;13.910;2022-12-29T07:37:33;1.92;;;1.17;;
25810;SDS011;13645;52.460;13.910;2022-12-29T07:40:01;5.10;;;1.17;;
25810;SDS011;13645;52.460;13.910;2022-12-29T07:42:30;4.13;;;1.60;;
25810;SDS011;13645;52.460;13.910;2022-12-29T07:44:57;3.15;;;1.30;;
25810;SDS011;13645;52.460;13.910;2022-12-29T07:47:24;1.67;;;1.00;;
25810;SDS011;13645;52.460;13.910;2022-12-29T07:49:51;2.63;;;1.40;;
25810;SDS011;13645;52.460;13.910;2022-12-29T07:52:18;4.13;;;1.10;;
25810;SDS011;13645;52.460;13.910;2022-12-29T07:54:44;2.17;;;1.20;;
25810;SDS011;13645;52.460;13.910;2022-12-29T07:57:11;1.55;;;1.08;;
25810;SDS011;13645;52.460;13.910;2022-12-29T07:59:38;1.63;;;1.15;;
25810;SDS011;13645;52.460;13.910;2022-12-29T08:02:05;3.80;;;1.10;;
25810;SDS011;13645;52.460;13.910;2022-12-29T08:04:32;2.15;;;1.30;;
25810;SDS011;13645;52.460;13.910;2022-12-29T08:06:59;2.05;;;1.20;;
25810;SDS011;13645;52.460;13.910;2022-12-29T08:09:26;2.72;;;1.05;;
25810;SDS011;13645;52.460;13.910;2022-12-29T08:11:53;1.58;;;1.08;;
25810;SDS011;13645;52.460;13.910;2022-12-29T08:14:20;2.88;;;1.30;;
25810;SDS011;13645;52.460;13.910;2022-12-29T08:16:47;2.83;;;1.80;;
25810;SDS011;13645;52.460;13.910;2022-12-29T08:19:13;1.98;;;1.35;;
25810;SDS011;13645;52.460;13.910;2022-12-29T08:21:41;1.65;;;1.10;;
25810;SDS011;13645;52.460;13.910;2022-12-29T08:24:07;0.90;;;0.88;;
25810;SDS011;13645;52.460;13.910;2022-12-29T08:26:35;3.25;;;1.30;;
25810;SDS011;13645;52.460;13.910;2022-12-29T08:29:01;2.70;;;1.00;;
25810;SDS011;13645;52.460;13.910;2022-12-29T08:31:28;2.72;;;1.17;;
25810;SDS011;13645;52.460;13.910;2022-12-29T08:33:56;1.27;;;1.10;;
25810;SDS011;13645;52.460;13.910;2022-12-29T08:36:23;3.97;;;1.30;;
25810;SDS011;13645;52.460;13.910;2022-12-29T08:38:49;2.03;;;1.23;;
25810;SDS011;13645;52.460;13.910;2022-12-29T08:41:16;1.65;;;1.20;;
25810;SDS011;13645;52.460;13.910;2022-12-29T08:43:46;3.42;;;1.40;;
25810;SDS011;13645;52.460;13.910;2022-12-29T08:46:14;4.82;;;1.33;;
25810;SDS011;13645;52.460;13.910;2022-12-29T08:48:41;3.42;;;1.48;;
25810;SDS011;13645;52.460;13.910;2022-12-29T08:51:08;2.85;;;1.50;;
25810;SDS011;13645;52.460;13.910;2022-12-29T08:53:35;1.50;;;1.15;;
25810;SDS011;13645;52.460;13.910;2022-12-29T08:56:02;2.03;;;1.30;;
25810;SDS011;13645;52.460;13.910;2022-12-29T08:58:31;2.35;;;1.00;;
25810;SDS011;13645;52.460;13.910;2022-12-29T09:00:58;2.53;;;1.27;;
25810;SDS011;13645;52.460;13.910;2022-12-29T09:03:25;3.13;;;1.10;;
25810;SDS011;13645;52.460;13.910;2022-12-29T09:06:12;2.25;;;1.10;;
25810;SDS011;13645;52.460;13.910;2022-12-29T09:08:40;2.85;;;1.42;;
25810;SDS011;13645;52.460;13.910;2022-12-29T09:11:11;5.05;;;1.27;;
25810;SDS011;13645;52.460;13.910;2022-12-29T09:13:44;3.13;;;1.10;;
25810;SDS011;13645;52.460;13.910;2022-12-29T09:16:10;2.50;;;1.17;;
25810;SDS011;13645;52.460;13.910;2022-12-29T09:18:38;1.77;;;1.10;;
25810;SDS011;13645;52.460;13.910;2022-12-29T09:21:05;1.67;;;1.10;;
25810;SDS011;13645;52.460;13.910;2022-12-29T09:23:33;2.63;;;1.10;;
25810;SDS011;13645;52.460;13.910;2022-12-29T09:26:01;2.40;;;0.90;;
25810;SDS011;13645;52.460;13.910;2022-12-29T09:28:28;1.38;;;1.10;;
25810;SDS011;13645;52.460;13.910;2022-12-29T09:30:55;2.50;;;1.20;;
25810;SDS011;13645;52.460;13.910;2022-12-29T09:33:23;1.92;;;1.50;;
25810;SDS011;13645;52.460;13.910;2022-12-29T09:35:53;2.28;;;1.40;;
25810;SDS011;13645;52.460;13.910;2022-12-29T09:38:21;4.10;;;1.38;;
25810;SDS011;13645;52.460;13.910;2022-12-29T09:40:50;3.30;;;1.70;;
25810;SDS011;13645;52.460;13.910;2022-12-29T09:48:39;2.60;;;1.23;;
25810;SDS011;13645;52.460;13.910;2022-12-29T09:51:11;4.97;;;1.30;;
25810;SDS011;13645;52.460;13.910;2022-12-29T09:53:46;2.33;;;0.93;;
25810;SDS011;13645;52.460;13.910;2022-12-29T09:56:28;1.83;;;0.88;;
25810;SDS011;13645;52.460;13.910;2022-12-29T09:59:39;1.45;;;0.85;;
25810;SDS011;13645;52.460;13.910;2022-12-29T10:02:06;3.00;;;0.90;;
25810;SDS011;13645;52.460;13.910;2022-12-29T10:04:54;3.40;;;0.93;;
25810;SDS011;13645;52.460;13.910;2022-12-29T10:07:31;1.73;;;0.80;;
25810;SDS011;13645;52.460;13.910;2022-12-29T10:10:30;2.45;;;1.00;;
25810;SDS011;13645;52.460;13.910;2022-12-29T10:13:13;2.15;;;0.90;;
25810;SDS011;13645;52.460;13.910;2022-12-29T10:27:01;2.88;;;0.90;;
25810;SDS011;13645;52.460;13.910;2022-12-29T10:29:32;1.42;;;0.90;;
25810;SDS011;13645;52.460;13.910;2022-12-29T10:32:16;2.58;;;0.95;;
25810;SDS011;13645;52.460;13.910;2022-12-29T10:34:51;5.55;;;0.98;;
25810;SDS011;13645;52.460;13.910;2022-12-29T10:37:47;3.20;;;1.23;;
25810;SDS011;13645;52.460;13.910;2022-12-29T10:40:27;1.92;;;1.00;;
25810;SDS011;13645;52.460;13.910;2022-12-29T10:42:56;3.33;;;0.75;;
25810;SDS011;13645;52.460;13.910;2022-12-29T10:45:26;3.53;;;0.98;;
25810;SDS011;13645;52.460;13.910;2022-12-29T10:48:03;4.18;;;0.90;;
25810;SDS011;13645;52.460;13.910;2022-12-29T10:50:37;3.47;;;1.00;;
25810;SDS011;13645;52.460;13.910;2022-12-29T10:53:11;2.28;;;1.10;;
25810;SDS011;13645;52.460;13.910;2022-12-29T10:55:43;1.27;;;0.75;;
25810;SDS011;13645;52.460;13.910;2022-12-29T10:58:11;2.22;;;1.05;;
25810;SDS011;13645;52.460;13.910;2022-12-29T11:00:40;0.90;;;0.70;;
25810;SDS011;13645;52.460;13.910;2022-12-29T11:06:28;2.88;;;0.90;;
25810;SDS011;13645;52.460;13.910;2022-12-29T11:08:52;1.00;;;0.60;;
25810;SDS011;13645;52.460;13.910;2022-12-29T11:11:26;3.72;;;0.73;;
25810;SDS011;13645;52.460;13.910;2022-12-29T11:14:13;1.05;;;0.82;;
25810;SDS011;13645;52.460;13.910;2022-12-29T11:16:45;1.55;;;0.93;;
25810;SDS011;13645;52.460;13.910;2022-12-29T11:19:25;2.28;;;0.80;;
25810;SDS011;13645;52.460;13.910;2022-12-29T11:21:54;1.98;;;0.80;;
25810;SDS011;13645;52.460;13.910;2022-12-29T11:26:52;1.13;;;0.80;;
25810;SDS011;13645;52.460;13.910;2022-12-29T11:29:24;3.53;;;1.05;;
25810;SDS011;13645;52.460;13.910;2022-12-29T11:31:54;1.70;;;0.80;;
25810;SDS011;13645;52.460;13.910;2022-12-29T11:37:01;1.25;;;0.80;;
25810;SDS011;13645;52.460;13.910;2022-12-29T11:42:00;6.18;;;0.90;;
25810;SDS011;13645;52.460;13.910;2022-12-29T11:44:29;2.45;;;0.98;;
25810;SDS011;13645;52.460;13.910;2022-12-29T11:47:03;2.13;;;0.95;;
25810;SDS011;13645;52.460;13.910;2022-12-29T11:49:31;1.75;;;0.95;;
25810;SDS011;13645;52.460;13.910;2022-12-29T11:51:58;3.97;;;0.90;;
25810;SDS011;13645;52.460;13.910;2022-12-29T11:54:29;2.42;;;1.40;;
25810;SDS011;13645;52.460;13.910;2022-12-29T11:57:08;2.72;;;1.27;;
25810;SDS011;13645;52.460;13.910;2022-12-29T11:59:51;3.22;;;2.00;;
25810;SDS011;13645;52.460;13.910;2022-12-29T12:02:40;2.30;;;0.98;;
25810;SDS011;13645;52.460;13.910;2022-12-29T12:05:31;5.32;;;0.90;;
25810;SDS011;13645;52.460;13.910;2022-12-29T12:11:12;4.10;;;1.20;;
25810;SDS011;13645;52.460;13.910;2022-12-29T12:17:14;2.38;;;1.30;;
25810;SDS011;13645;52.460;13.910;2022-12-29T12:22:03;1.90;;;1.30;;
25810;SDS011;13645;52.460;13.910;2022-12-29T12:24:44;2.50;;;1.30;;
25810;SDS011;13645;52.460;13.910;2022-12-29T12:27:23;5.25;;;1.27;;
25810;SDS011;13645;52.460;13.910;2022-12-29T12:30:16;4.30;;;1.17;;
25810;SDS011;13645;52.460;13.910;2022-12-29T12:43:37;4.35;;;2.33;;
25810;SDS011;13645;52.460;13.910;2022-12-29T12:46:19;3.05;;;1.48;;
25810;SDS011;13645;52.460;13.910;2022-12-29T12:55:28;3.08;;;1.40;;
25810;SDS011;13645;52.460;13.910;2022-12-29T13:01:04;3.72;;;1.20;;
25810;SDS011;13645;52.460;13.910;2022-12-29T13:14:32;2.15;;;0.98;;
25810;SDS011;13645;52.460;13.910;2022-12-29T13:29:12;0.95;;;0.50;;
25810;SDS011;13645;52.460;13.910;2022-12-29T13:31:43;1.40;;;0.57;;
25810;SDS011;13645;52.460;13.910;2022-12-29T13:34:28;1.00;;;0.50;;
25810;SDS011;13645;52.460;13.910;2022-12-29T13:37:12;1.02;;;0.55;;
25810;SDS011;13645;52.460;13.910;2022-12-29T13:39:52;0.95;;;0.60;;
25810;SDS011;13645;52.460;13.910;2022-12-29T13:42:23;1.02;;;0.60;;
25810;SDS011;13645;52.460;13.910;2022-12-29T13:47:29;2.55;;;0.52;;
25810;SDS011;13645;52.460;13.910;2022-12-29T13:50:01;1.48;;;0.50;;
25810;SDS011;13645;52.460;13.910;2022-12-29T13:52:38;1.08;;;0.80;;
25810;SDS011;13645;52.460;13.910;2022-12-29T13:58:00;5.60;;;1.05;;
25810;SDS011;13645;52.460;13.910;2022-12-29T14:00:52;0.85;;;0.68;;
25810;SDS011;13645;52.460;13.910;2022-12-29T14:06:30;1.58;;;1.30;;
25810;SDS011;13645;52.460;13.910;2022-12-29T14:09:02;2.13;;;1.55;;
25810;SDS011;13645;52.460;13.910;2022-12-29T14:11:31;2.83;;;1.10;;
25810;SDS011;13645;52.460;13.910;2022-12-29T14:14:21;3.28;;;0.90;;
25810;SDS011;13645;52.460;13.910;2022-12-29T14:16:51;4.88;;;1.08;;
25810;SDS011;13645;52.460;13.910;2022-12-29T14:19:20;3.00;;;1.00;;
25810;SDS011;13645;52.460;13.910;2022-12-29T14:21:53;1.63;;;1.00;;
25810;SDS011;13645;52.460;13.910;2022-12-29T14:37:27;5.60;;;1.08;;
25810;SDS011;13645;52.460;13.910;2022-12-29T14:40:08;2.42;;;1.10;;
25810;SDS011;13645;52.460;13.910;2022-12-29T14:42:46;1.20;;;1.00;;
25810;SDS011;13645;52.460;13.910;2022-12-29T14:47:41;2.88;;;0.98;;
25810;SDS011;13645;52.460;13.910;2022-12-29T14:58:16;1.67;;;1.02;;
25810;SDS011;13645;52.460;13.910;2022-12-29T15:00:46;1.83;;;1.00;;
25810;SDS011;13645;52.460;13.910;2022-12-29T15:03:17;2.33;;;1.15;;
25810;SDS011;13645;52.460;13.910;2022-12-29T15:05:45;2.08;;;1.10;;
25810;SDS011;13645;52.460;13.910;2022-12-29T15:08:19;2.63;;;1.05;;
25810;SDS011;13645;52.460;13.910;2022-12-29T15:11:12;3.15;;;1.30;;
25810;SDS011;13645;52.460;13.910;2022-12-29T15:16:56;2.92;;;1.35;;
25810;SDS011;13645;52.460;13.910;2022-12-29T15:19:24;2.10;;;1.40;;
25810;SDS011;13645;52.460;13.910;2022-12-29T15:21:55;2.30;;;1.30;;
25810;SDS011;13645;52.460;13.910;2022-12-29T15:24:23;3.05;;;1.50;;
25810;SDS011;13645;52.460;13.910;2022-12-29T15:26:51;1.35;;;1.23;;
25810;SDS011;13645;52.460;13.910;2022-12-29T15:29:38;2.10;;;1.40;;
25810;SDS011;13645;52.460;13.910;2022-12-29T15:34:49;3.95;;;2.40;;
25810;SDS011;13645;52.460;13.910;2022-12-29T15:37:33;2.53;;;1.35;;
25810;SDS011;13645;52.460;13.910;2022-12-29T15:40:02;5.68;;;1.17;;
25810;SDS011;13645;52.460;13.910;2022-12-29T15:45:32;2.88;;;1.15;;
25810;SDS011;13645;52.460;13.910;2022-12-29T15:48:00;2.42;;;1.30;;
25810;SDS011;13645;52.460;13.910;2022-12-29T15:50:34;1.48;;;0.90;;
25810;SDS011;13645;52.460;13.910;2022-12-29T15:53:03;2.03;;;1.10;;
25810;SDS011;13645;52.460;13.910;2022-12-29T15:58:17;1.77;;;1.10;;
25810;SDS011;13645;52.460;13.910;2022-12-29T16:00:51;2.50;;;1.15;;
25810;SDS011;13645;52.460;13.910;2022-12-29T16:03:24;2.10;;;1.05;;
25810;SDS011;13645;52.460;13.910;2022-12-29T16:05:54;2.63;;;1.17;;
25810;SDS011;13645;52.460;13.910;2022-12-29T16:08:32;2.58;;;1.17;;
25810;SDS011;13645;52.460;13.910;2022-12-29T16:13:34;2.75;;;1.00;;
25810;SDS011;13645;52.460;13.910;2022-12-29T16:16:11;1.98;;;1.00;;
25810;SDS011;13645;52.460;13.910;2022-12-29T16:18:43;3.03;;;1.10;;
25810;SDS011;13645;52.460;13.910;2022-12-29T16:21:18;3.05;;;1.33;;
25810;SDS011;13645;52.460;13.910;2022-12-29T16:23:50;3.20;;;1.10;;
25810;SDS011;13645;52.460;13.910;2022-12-29T16:26:20;4.53;;;1.10;;
25810;SDS011;13645;52.460;13.910;2022-12-29T16:28:50;3.38;;;1.08;;
25810;SDS011;13645;52.460;13.910;2022-12-29T16:31:24;4.57;;;1.70;;
25810;SDS011;13645;52.460;13.910;2022-12-29T16:33:58;3.40;;;2.25;;
25810;SDS011;13645;52.460;13.910;2022-12-29T16:36:40;7.53;;;3.00;;
25810;SDS011;13645;52.460;13.910;2022-12-29T16:39:37;3.72;;;1.70;;
25810;SDS011;13645;52.460;13.910;2022-12-29T16:50:32;4.57;;;1.63;;
25810;SDS011;13645;52.460;13.910;2022-12-29T16:53:01;1.88;;;1.00;;
25810;SDS011;13645;52.460;13.910;2022-12-29T16:55:29;3.40;;;1.38;;
25810;SDS011;13645;52.460;13.910;2022-12-29T16:57:56;3.60;;;1.50;;
25810;SDS011;13645;52.460;13.910;2022-12-29T17:00:25;3.60;;;1.33;;
25810;SDS011;13645;52.460;13.910;2022-12-29T17:02:58;2.55;;;1.23;;
25810;SDS011;13645;52.460;13.910;2022-12-29T17:05:26;7.35;;;1.30;;
25810;SDS011;13645;52.460;13.910;2022-12-29T17:07:53;3.03;;;1.20;;
25810;SDS011;13645;52.460;13.910;2022-12-29T17:10:21;2.97;;;1.30;;
25810;SDS011;13645;52.460;13.910;2022-12-29T17:13:07;2.55;;;1.10;;
25810;SDS011;13645;52.460;13.910;2022-12-29T17:15:34;3.40;;;1.20;;
25810;SDS011;13645;52.460;13.910;2022-12-29T17:18:01;2.35;;;1.17;;
25810;SDS011;13645;52.460;13.910;2022-12-29T17:20:33;3.20;;;1.10;;
25810;SDS011;13645;52.460;13.910;2022-12-29T17:23:00;4.07;;;1.30;;
25810;SDS011;13645;52.460;13.910;2022-12-29T17:30:33;5.15;;;1.05;;
25810;SDS011;13645;52.460;13.910;2022-12-29T17:33:05;2.80;;;1.00;;
25810;SDS011;13645;52.460;13.910;2022-12-29T17:35:38;2.67;;;1.10;;
25810;SDS011;13645;52.460;13.910;2022-12-29T17:38:21;2.10;;;1.00;;
25810;SDS011;13645;52.460;13.910;2022-12-29T17:40:53;5.88;;;2.08;;
25810;SDS011;13645;52.460;13.910;2022-12-29T17:43:20;9.80;;;3.45;;
25810;SDS011;13645;52.460;13.910;2022-12-29T17:45:54;11.23;;;5.05;;
25810;SDS011;13645;52.460;13.910;2022-12-29T17:48:23;5.38;;;1.45;;
25810;SDS011;13645;52.460;13.910;2022-12-29T17:50:51;6.38;;;1.58;;
25810;SDS011;13645;52.460;13.910;2022-12-29T17:53:20;7.10;;;3.70;;
25810;SDS011;13645;52.460;13.910;2022-12-29T17:55:49;3.50;;;1.83;;
25810;SDS011;13645;52.460;13.910;2022-12-29T18:00:49;3.08;;;1.35;;
25810;SDS011;13645;52.460;13.910;2022-12-29T18:03:18;8.90;;;4.72;;
25810;SDS011;13645;52.460;13.910;2022-12-29T18:05:50;9.38;;;5.15;;
25810;SDS011;13645;52.460;13.910;2022-12-29T18:08:17;6.93;;;3.50;;